ADDS METAR Data INFO
IDs: Format: Raw Decoded Include TAF

Data at: 2312 UTC 15 Jul 2018

KMHT 152253Z VRB03KT 10SM FEW100 FEW250 27/22 A2991 RMK AO2 LTG DSNT SW SLP139 CB DSNT SW T02720222 $
KMHT 152153Z 00000KT 10SM FEW030 BKN100 BKN250 26/22 A2991 RMK AO2 RAE30 TSE30 SLP137 P0001 T02560222 $
KMHT 152130Z 23004KT 10SM FEW028 FEW070 BKN100 BKN250 26/22 A2992 RMK AO2 RAE30 TSE30 P0001 T02560217 $
KMHT 152053Z 10006KT 10SM -TSRA FEW035CB SCT060 BKN100 BKN200 29/20 A2992 RMK AO2 RAB30 TSE09B30E32B49 SLP139 OCNL LTGCG W-N TS W-N MOV S P0001 60001 T02890200 56007 $
KMHT 152012Z 11007KT 070V130 10SM VCTS FEW034CB FEW110 BKN250 29/20 A2992 RMK AO2 LTG DSNT N AND NW TSE09 OCNL LTGCG VC NW TS VC NW MOV S T02940200 $
KMHT 151953Z 11006KT 10SM FEW034 FEW130 BKN250 28/20 A2992 RMK AO2 LTG DSNT NE SLP140 CB DSNT N NE-E MOV S T02830200 $
KMHT 151853Z 11006KT 10SM SCT034 SCT250 28/21 A2992 RMK AO2 LTG DSNT N AND NE SLP140 CB DSNT N-NE MOV S T02830206 $
KMHT 151753Z 07006KT 10SM SCT027 SCT250 29/21 A2994 RMK AO2 SLP147 CB DSNT N MOV S T02890206 10289 20206 58006 $
KMHT 151737Z VRB05KT 10SM SCT027 SCT250 26/20 A2995 RMK AO2 T02610200 $
KMHT 151653Z 00000KT 10SM BKN024 BKN250 27/19 A2995 RMK AO2 SLP152 T02670194 $
KMHT 151553Z 20005KT 10SM BKN023 BKN250 26/19 A2995 RMK AO2 SLP152 T02560194 $
KMHT 151453Z 25004KT 10SM BKN019 BKN250 24/19 A2996 RMK AO2 SLP154 T02440189 56009 $
KMHT 151400Z 00000KT 10SM SCT016 BKN250 23/18 A2996 RMK AO2 T02330183 $
KMHT 151353Z 28003KT 10SM BKN013 BKN250 23/18 A2996 RMK AO2 SLP156 T02280183 $
KMHT 151253Z VRB03KT 10SM BKN013 BKN250 21/18 A2997 RMK AO2 SLP161 T02110178 $
KMHT 151207Z 34003KT 10SM SCT010 BKN250 21/17 A2998 RMK AO2 T02110172 $
KMHT 151153Z 35004KT 10SM BKN009 20/17 A2998 RMK AO2 SLP163 70005 T02000172 10206 20183 52001 $
KMHT 151053Z 03003KT 10SM OVC007 19/17 A2998 RMK AO2 SLP164 T01940172 $
KMHT 150953Z 00000KT 10SM OVC008 19/17 A2998 RMK AO2 SLP162 T01890167 $
KMHT 150853Z 04004KT 10SM OVC007 19/17 A2998 RMK AO2 SLP162 T01890167 56008 $
KMHT 150753Z 05003KT 10SM OVC008 19/16 A2998 RMK AO2 SLP164 T01890161 $
KMHT 150653Z 13003KT 10SM OVC009 18/16 A3000 RMK AO2 SLP167 T01830161 $
KMHT 150553Z 00000KT 10SM OVC009 18/16 A3000 RMK AO2 SLP171 60005 T01830161 10222 20183 58010 $
KMHT 150453Z 00000KT 10SM OVC011 19/16 A3002 RMK AO2 SLP175 T01890161 $
KMHT 150353Z 00000KT 10SM OVC014 19/16 A3003 RMK AO2 SLP179 T01890161 $
KMHT 150331Z 00000KT 10SM BKN014 BKN250 19/17 A3003 RMK AO2 T01890167 $
KMHT 150253Z 09003KT 10SM FEW026 SCT055 BKN250 19/17 A3004 RMK AO2 SLP181 60005 T01890167 50004 $
KMHT 150153Z 07003KT 10SM FEW028 SCT055 BKN070 19/16 A3005 RMK AO2 RAE26 SLP185 P0005 T01940161 $
KMHT 150053Z 00000KT 10SM -RA BKN030 OVC070 21/13 A3004 RMK AO2 RAB53 SLP182 P0000 T02110133 $
KMHT 142353Z 11004KT 10SM SCT035 BKN080 BKN140 22/13 A3002 RMK AO2 SLP178 T02220128 10261 20222 56009 $
KMHT 142253Z 11009KT 10SM FEW035 BKN065 BKN140 23/13 A3003 RMK AO2 SLP180 T02280133 $
KMHT 142153Z 11005KT 10SM FEW035 OVC090 23/13 A3004 RMK AO2 SLP183 T02330133 $
KMHT 142053Z 12010KT 10SM FEW035 OVC080 25/14 A3005 RMK AO2 SLP187 T02500139 56011 $
KMHT 141953Z 13008KT 10SM FEW035 OVC085 25/15 A3006 RMK AO2 SLP189 T02500150 $
KMHT 141853Z 14008KT 10SM SCT035 OVC110 25/15 A3007 RMK AO2 SLP193 T02500150 $
KMHT 141753Z 16005KT 10SM BKN035 OVC120 25/14 A3008 RMK AO2 SLP198 T02500144 58014 $
KMHT 141653Z 15009KT 10SM BKN030 OVC120 18/16 A3010 RMK AO2 SLP204 T01780156 $
KMHT 141642Z 15007KT 10SM BKN030 OVC120 18/16 A3010 RMK AO2 T01780156 $
KMHT 141553Z VRB06KT 10SM BKN028 BKN100 23/16 A3012 RMK AO2 SLP211 T02330156 $
KMHT 141516Z VRB05KT 10SM BKN026 BKN110 23/16 A3013 RMK AO2 T02330156 $
KMHT 141453Z 13007KT 10SM SCT026 BKN120 24/15 A3013 RMK AO2 SLP212 T02390150 56013 $
KMHT 141353Z 12006KT 10SM FEW027 BKN110 23/16 A3014 RMK AO2 SLP215 T02280156 $
KMHT 141253Z 15005KT 10SM SCT024 BKN120 22/15 A3016 RMK AO2 SLP222 T02170150 $
KMHT 141153Z 21003KT 10SM BKN150 20/14 A3017 RMK AO2 SLP226 T02000139 58002 $